createdAt,value
2018-06-23T00:03:52.316Z,13.80
2018-06-23T00:06:20.319Z,13.80
2018-06-23T00:08:48.333Z,13.80
2018-06-23T00:11:16.411Z,13.70
2018-06-23T00:13:44.391Z,13.70
2018-06-23T00:18:40.363Z,13.50
2018-06-23T00:21:08.391Z,13.60
2018-06-23T00:23:36.399Z,13.60
2018-06-23T00:26:10.008Z,13.50
2018-06-23T00:28:38.024Z,13.50
2018-06-23T00:31:06.203Z,13.50
2018-06-23T00:33:34.215Z,13.40
2018-06-23T00:36:02.242Z,13.40
2018-06-23T00:38:30.310Z,13.30
2018-06-23T00:40:58.306Z,13.40
2018-06-23T00:43:26.338Z,13.40
2018-06-23T00:45:54.353Z,13.40
2018-06-23T00:48:22.363Z,13.40
2018-06-23T00:50:50.390Z,13.40
2018-06-23T00:53:18.378Z,13.40
2018-06-23T00:55:46.374Z,13.40
2018-06-23T00:58:14.365Z,13.40
2018-06-23T01:00:42.402Z,13.40
2018-06-23T01:03:10.435Z,13.40
2018-06-23T01:05:38.438Z,13.40
2018-06-23T01:08:06.435Z,13.50
2018-06-23T01:10:34.458Z,13.50
2018-06-23T01:13:02.459Z,13.50
2018-06-23T01:15:30.483Z,13.50
2018-06-23T01:17:58.490Z,13.50
2018-06-23T01:20:26.513Z,13.50
2018-06-23T01:22:54.552Z,13.50
2018-06-23T01:25:22.576Z,13.50
2018-06-23T01:27:50.579Z,13.50
2018-06-23T01:30:18.598Z,13.50
2018-06-23T01:32:46.618Z,13.50
2018-06-23T01:35:14.675Z,13.50
2018-06-23T01:37:42.682Z,13.50
2018-06-23T01:40:10.698Z,13.40
2018-06-23T01:42:38.710Z,13.40
2018-06-23T01:45:06.779Z,13.50
2018-06-23T01:47:34.787Z,13.50
2018-06-23T01:50:02.796Z,13.50
2018-06-23T01:52:30.890Z,13.50
2018-06-23T01:54:58.883Z,13.50
2018-06-23T01:57:26.875Z,13.50
2018-06-23T01:59:54.959Z,13.50
2018-06-23T02:02:22.946Z,13.50
2018-06-23T02:04:50.986Z,13.40
2018-06-23T02:07:18.991Z,13.40
2018-06-23T02:09:47.553Z,13.40
2018-06-23T02:12:15.522Z,13.40
2018-06-23T02:14:49.012Z,13.30
2018-06-23T02:17:22.614Z,13.40
2018-06-23T02:19:56.170Z,13.30
2018-06-23T02:22:29.602Z,13.30
2018-06-23T02:25:03.082Z,13.20
2018-06-23T02:27:36.734Z,13.20
2018-06-23T02:30:10.359Z,13.20
2018-06-23T02:32:43.647Z,13.20
2018-06-23T02:35:11.647Z,13.20
2018-06-23T02:37:39.994Z,13.20
2018-06-23T02:40:08.358Z,13.10
2018-06-23T02:42:36.778Z,13.10
2018-06-23T02:45:05.876Z,13.10
2018-06-23T02:47:33.894Z,13.10
2018-06-23T02:50:01.894Z,13.00
2018-06-23T02:52:31.283Z,13.00
2018-06-23T02:54:59.308Z,13.00
2018-06-23T02:57:27.485Z,13.00
2018-06-23T02:59:55.483Z,12.90
2018-06-23T03:02:23.663Z,12.80
2018-06-23T03:04:51.854Z,12.80
2018-06-23T03:07:19.831Z,12.80
2018-06-23T03:09:49.418Z,12.80
2018-06-23T03:12:17.399Z,12.70
2018-06-23T03:14:45.380Z,12.70
2018-06-23T03:17:15.887Z,12.70
2018-06-23T03:19:45.715Z,12.70
2018-06-23T03:22:13.773Z,12.80
2018-06-23T03:24:42.156Z,12.80
2018-06-23T03:27:10.171Z,12.80
2018-06-23T03:29:38.490Z,12.80
2018-06-23T03:32:06.479Z,12.70
2018-06-23T03:34:34.506Z,12.70
2018-06-23T03:37:02.491Z,12.70
2018-06-23T03:39:30.498Z,12.80
2018-06-23T03:41:58.512Z,12.80
2018-06-23T03:44:26.511Z,12.70
2018-06-23T03:46:54.747Z,12.80
2018-06-23T03:49:22.813Z,12.80
2018-06-23T03:51:50.835Z,12.80
2018-06-23T03:54:18.895Z,12.80
2018-06-23T03:56:47.087Z,12.80
2018-06-23T04:01:42.918Z,12.80
2018-06-23T04:04:10.916Z,12.90
2018-06-23T04:06:38.958Z,12.90
2018-06-23T04:09:08.642Z,12.90
2018-06-23T04:11:37.078Z,13.00
2018-06-23T04:14:05.039Z,12.90
2018-06-23T04:16:33.272Z,12.90
2018-06-23T04:19:01.284Z,12.90
2018-06-23T04:21:30.354Z,12.80
2018-06-23T04:23:58.622Z,12.90
2018-06-23T04:26:27.218Z,12.90
2018-06-23T04:28:55.266Z,12.90
2018-06-23T04:31:23.262Z,13.00
2018-06-23T04:33:51.266Z,12.90
2018-06-23T04:36:19.310Z,12.80
2018-06-23T04:38:47.362Z,12.90
2018-06-23T04:41:15.359Z,12.90
2018-06-23T04:43:43.398Z,12.90
2018-06-23T04:46:11.390Z,13.00
2018-06-23T04:48:39.479Z,13.00
2018-06-23T04:51:07.610Z,12.90
2018-06-23T04:53:40.535Z,12.90
2018-06-23T04:56:08.946Z,12.80
2018-06-23T04:58:36.974Z,12.90
2018-06-23T05:01:05.015Z,12.80
2018-06-23T05:03:33.125Z,12.80
2018-06-23T05:06:01.139Z,12.70
2018-06-23T05:08:29.130Z,12.70
2018-06-23T05:10:57.110Z,12.80
2018-06-23T05:13:25.202Z,12.90
2018-06-23T05:15:53.323Z,13.00
2018-06-23T05:18:21.339Z,13.10
2018-06-23T05:20:49.378Z,13.10
2018-06-23T05:23:17.370Z,13.10
2018-06-23T05:25:45.372Z,13.10
2018-06-23T05:28:13.398Z,13.10
2018-06-23T05:30:41.386Z,13.00
2018-06-23T05:33:09.511Z,13.00
2018-06-23T05:35:37.552Z,13.00
2018-06-23T05:38:06.258Z,13.00
2018-06-23T05:40:34.258Z,13.00
2018-06-23T05:43:02.258Z,13.10
2018-06-23T05:45:30.483Z,13.20
2018-06-23T05:47:58.514Z,13.40
2018-06-23T05:50:26.548Z,13.50
2018-06-23T05:52:54.550Z,13.70
2018-06-23T05:55:22.716Z,13.70
2018-06-23T05:57:50.742Z,13.60
2018-06-23T06:00:18.758Z,13.60
2018-06-23T06:02:46.790Z,13.60
2018-06-23T06:05:14.782Z,13.60
2018-06-23T06:07:42.846Z,13.50
2018-06-23T06:10:10.822Z,13.50
2018-06-23T06:12:38.910Z,13.50
2018-06-23T06:15:06.922Z,13.50
2018-06-23T06:17:36.023Z,13.60
2018-06-23T06:20:05.817Z,13.60
2018-06-23T06:22:36.047Z,13.60
2018-06-23T06:25:04.881Z,13.60
2018-06-23T06:27:32.914Z,13.60
2018-06-23T06:30:00.914Z,13.60
2018-06-23T06:32:29.466Z,13.60
2018-06-23T06:34:57.686Z,13.70
2018-06-23T06:37:25.710Z,13.70
2018-06-23T06:39:53.715Z,13.70
2018-06-23T06:42:22.619Z,13.70
2018-06-23T06:44:52.014Z,13.70
2018-06-23T06:47:21.492Z,13.60
2018-06-23T06:49:51.033Z,13.50
2018-06-23T06:54:46.933Z,13.50
2018-06-23T06:57:15.174Z,13.60
2018-06-23T06:59:43.226Z,13.50
2018-06-23T07:02:11.339Z,13.40
2018-06-23T07:04:39.451Z,13.30
2018-06-23T07:07:07.451Z,13.30
2018-06-23T07:09:35.875Z,13.20
2018-06-23T07:12:04.174Z,13.20
2018-06-23T07:14:33.610Z,13.20
2018-06-23T07:17:01.990Z,13.20
2018-06-23T07:19:30.404Z,13.20
2018-06-23T07:21:58.757Z,13.10
2018-06-23T07:24:27.193Z,13.20
2018-06-23T07:26:55.544Z,13.30
2018-06-23T07:31:52.429Z,13.40
2018-06-23T07:34:20.896Z,13.30
2018-06-23T07:36:49.076Z,13.20
2018-06-23T07:39:17.078Z,13.20
2018-06-23T07:41:45.511Z,13.30
2018-06-23T07:44:13.829Z,13.30
2018-06-23T07:46:42.332Z,13.60
2018-06-23T07:49:10.659Z,13.70
2018-06-23T07:51:39.042Z,13.70
2018-06-23T07:54:07.466Z,13.80
2018-06-23T07:56:35.877Z,13.90
2018-06-23T07:59:04.123Z,14.20
2018-06-23T08:01:32.629Z,14.20
2018-06-23T08:04:01.055Z,14.10
2018-06-23T08:06:29.098Z,14.20
2018-06-23T08:08:57.365Z,14.30
2018-06-23T08:11:25.838Z,14.30
2018-06-23T08:13:54.212Z,14.20
2018-06-23T08:16:22.502Z,14.20
2018-06-23T08:18:50.929Z,14.20
2018-06-23T08:21:19.353Z,14.00
2018-06-23T08:23:47.690Z,14.00
2018-06-23T08:26:16.169Z,13.90
2018-06-23T08:28:44.464Z,13.90
2018-06-23T08:31:12.846Z,14.00
2018-06-23T08:33:41.210Z,14.10
2018-06-23T08:36:09.255Z,14.00
2018-06-23T08:38:37.282Z,13.90
2018-06-23T08:41:05.295Z,13.90
2018-06-23T08:43:33.353Z,14.00
2018-06-23T08:46:01.335Z,14.10
2018-06-23T08:48:29.674Z,14.00
2018-06-23T08:50:58.075Z,14.10
2018-06-23T08:53:26.381Z,14.10
2018-06-23T08:55:54.717Z,14.10
2018-06-23T08:58:22.726Z,14.20
2018-06-23T09:00:50.762Z,14.20
2018-06-23T09:03:19.094Z,14.30
2018-06-23T09:05:47.087Z,14.40
2018-06-23T09:08:15.072Z,14.50
2018-06-23T09:10:43.138Z,14.70
2018-06-23T09:13:11.146Z,14.70
2018-06-23T09:15:39.139Z,14.70
2018-06-23T09:18:07.203Z,14.80
2018-06-23T09:20:35.206Z,14.90
2018-06-23T09:23:03.851Z,15.10
2018-06-23T09:25:31.898Z,15.30
2018-06-23T09:28:00.352Z,15.30
2018-06-23T09:30:28.681Z,15.10
2018-06-23T09:32:57.003Z,15.10
2018-06-23T09:35:25.361Z,15.20
2018-06-23T09:40:21.715Z,15.50
2018-06-23T09:42:49.996Z,15.70
2018-06-23T09:45:18.257Z,15.80
2018-06-23T09:47:46.667Z,15.80
2018-06-23T09:50:15.161Z,15.70
2018-06-23T09:52:43.158Z,15.70
2018-06-23T09:55:11.158Z,15.60
2018-06-23T09:57:39.175Z,15.70
2018-06-23T10:00:07.298Z,15.60
2018-06-23T10:02:35.312Z,15.60
2018-06-23T10:05:03.354Z,15.70
2018-06-23T10:07:31.382Z,15.80
2018-06-23T10:09:59.830Z,15.90
2018-06-23T10:12:27.807Z,16.00
2018-06-23T10:14:55.820Z,16.30
2018-06-23T10:17:23.839Z,16.60
2018-06-23T10:19:52.454Z,16.70
2018-06-23T10:22:20.512Z,16.80
2018-06-23T10:24:48.515Z,17.00
2018-06-23T10:27:16.824Z,17.30
2018-06-23T10:29:45.094Z,17.60
2018-06-23T10:32:13.436Z,18.00
2018-06-23T10:37:09.358Z,18.60
2018-06-23T10:39:37.354Z,18.40
2018-06-23T10:42:05.715Z,18.10
2018-06-23T10:44:33.734Z,17.80
2018-06-23T10:47:01.732Z,17.60
2018-06-23T10:49:29.729Z,17.70
2018-06-23T10:51:57.794Z,17.60
2018-06-23T10:54:25.804Z,17.70
2018-06-23T10:56:53.808Z,17.90
2018-06-23T10:59:21.803Z,18.00
2018-06-23T11:04:17.632Z,18.20
2018-06-23T11:06:45.627Z,18.40
2018-06-23T11:09:13.630Z,18.70
2018-06-23T11:11:41.624Z,19.00
2018-06-23T11:14:09.619Z,19.50
2018-06-23T11:16:37.590Z,19.60
2018-06-23T11:19:05.619Z,19.60
2018-06-23T11:21:33.816Z,19.30
2018-06-23T11:24:01.947Z,19.20
2018-06-23T11:26:29.976Z,19.20
2018-06-23T11:28:58.226Z,19.00
2018-06-23T11:31:26.218Z,19.00
2018-06-23T11:33:54.224Z,18.90
2018-06-23T11:36:22.213Z,19.00
2018-06-23T11:38:50.210Z,19.50
2018-06-23T11:41:18.286Z,20.10
2018-06-23T11:43:46.246Z,20.50
2018-06-23T11:46:14.274Z,20.60
2018-06-23T11:48:42.342Z,20.40
2018-06-23T11:51:10.414Z,20.00
2018-06-23T11:53:38.540Z,19.60
2018-06-23T11:56:06.627Z,19.60
2018-06-23T11:58:34.671Z,19.60
2018-06-23T12:01:02.711Z,19.40
2018-06-23T12:03:30.829Z,19.20
2018-06-23T12:05:58.830Z,19.30
2018-06-23T12:08:26.844Z,19.30
2018-06-23T12:10:54.872Z,19.10
2018-06-23T12:13:22.893Z,18.70
2018-06-23T12:15:50.979Z,18.70
2018-06-23T12:18:18.966Z,18.70
2018-06-23T12:20:47.328Z,18.80
2018-06-23T12:23:15.338Z,18.60
2018-06-23T12:25:43.343Z,18.30
2018-06-23T12:28:11.352Z,18.10
2018-06-23T12:30:40.420Z,18.10
2018-06-23T12:33:08.476Z,18.30
2018-06-23T12:35:36.495Z,18.60
2018-06-23T12:38:04.504Z,18.80
2018-06-23T12:40:32.552Z,19.10
2018-06-23T12:43:00.577Z,19.40
2018-06-23T12:45:28.574Z,19.60
2018-06-23T12:47:56.563Z,19.60
2018-06-23T12:50:24.688Z,19.40
2018-06-23T12:52:52.694Z,19.00
2018-06-23T12:55:20.767Z,18.70
2018-06-23T12:57:48.774Z,18.50
2018-06-23T13:00:16.799Z,18.40
2018-06-23T13:02:44.846Z,18.40
2018-06-23T13:05:12.845Z,18.50
2018-06-23T13:07:40.855Z,18.70
2018-06-23T13:10:09.394Z,18.70
2018-06-23T13:12:37.388Z,18.70
2018-06-23T13:15:05.999Z,18.50
2018-06-23T13:17:33.991Z,18.20
2018-06-23T13:20:01.991Z,17.80
2018-06-23T13:22:30.112Z,17.60
2018-06-23T13:24:58.135Z,17.40
2018-06-23T13:27:26.152Z,17.30
2018-06-23T13:29:54.167Z,17.30
2018-06-23T13:32:22.177Z,17.30
2018-06-23T13:34:50.182Z,17.30
2018-06-23T13:37:18.213Z,17.20
2018-06-23T13:39:46.219Z,17.30
2018-06-23T13:44:42.089Z,17.50
2018-06-23T13:47:10.137Z,17.60
2018-06-23T13:49:38.115Z,17.70
2018-06-23T13:52:06.128Z,17.70
2018-06-23T13:54:34.138Z,17.80
2018-06-23T13:57:02.135Z,17.90
2018-06-23T13:59:30.135Z,18.00
2018-06-23T14:01:58.151Z,18.00
2018-06-23T14:06:54.142Z,17.90
2018-06-23T14:09:22.134Z,17.90
2018-06-23T14:11:50.154Z,18.20
2018-06-23T14:14:18.142Z,18.80
2018-06-23T14:16:46.342Z,19.10
2018-06-23T14:19:14.347Z,19.00
2018-06-23T14:21:42.360Z,18.40
2018-06-23T14:24:10.307Z,18.10
2018-06-23T14:26:38.302Z,17.90
2018-06-23T14:29:06.334Z,17.70
2018-06-23T14:31:34.349Z,17.60
2018-06-23T14:34:02.315Z,17.50
2018-06-23T14:36:30.386Z,17.40
2018-06-23T14:38:58.462Z,17.60
2018-06-23T14:41:26.472Z,17.70
2018-06-23T14:43:54.478Z,17.90
2018-06-23T14:46:22.475Z,18.00
2018-06-23T14:48:50.487Z,17.90
2018-06-23T14:51:18.485Z,17.70
2018-06-23T14:53:46.504Z,17.60
2018-06-23T14:56:14.601Z,17.60
2018-06-23T14:58:42.626Z,17.50
2018-06-23T15:01:10.615Z,17.30
2018-06-23T15:03:38.647Z,17.20
2018-06-23T15:06:07.847Z,17.10
2018-06-23T15:08:47.404Z,17.10
2018-06-23T15:11:26.959Z,17.00
2018-06-23T15:13:54.970Z,17.00
2018-06-23T15:16:22.974Z,17.00
2018-06-23T15:18:50.978Z,16.90
2018-06-23T15:21:19.003Z,16.90
2018-06-23T15:23:46.990Z,16.80
2018-06-23T15:26:15.169Z,16.60
2018-06-23T15:28:43.522Z,16.40
2018-06-23T15:31:11.607Z,16.20
2018-06-23T15:33:39.912Z,16.00
2018-06-23T15:36:07.907Z,15.80
2018-06-23T15:38:36.031Z,15.60
2018-06-23T15:41:04.414Z,15.50
2018-06-23T15:43:32.420Z,15.30
2018-06-23T15:46:00.436Z,15.30
2018-06-23T15:48:28.986Z,15.20
2018-06-23T15:50:58.283Z,15.30
2018-06-23T15:53:27.068Z,15.40
2018-06-23T15:55:56.080Z,15.40
2018-06-23T15:58:25.098Z,15.50
2018-06-23T16:00:53.634Z,15.70
2018-06-23T16:03:22.256Z,15.90
2018-06-23T16:05:50.818Z,16.00
2018-06-23T16:08:19.918Z,16.00
2018-06-23T16:10:49.382Z,16.00
2018-06-23T16:13:17.831Z,16.20
2018-06-23T16:15:46.249Z,16.30
2018-06-23T16:18:14.902Z,16.30
2018-06-23T16:20:43.249Z,16.50
2018-06-23T16:23:11.646Z,16.50
2018-06-23T16:25:39.603Z,16.50
2018-06-23T16:28:07.599Z,16.40
2018-06-23T16:30:35.608Z,16.30
2018-06-23T16:33:03.635Z,16.20
2018-06-23T16:35:31.677Z,16.20
2018-06-23T16:37:59.687Z,16.20
2018-06-23T16:40:27.739Z,16.30
2018-06-23T16:42:55.736Z,16.20
2018-06-23T16:45:23.755Z,16.30
2018-06-23T16:47:51.750Z,16.30
2018-06-23T16:50:19.755Z,16.20
2018-06-23T16:52:47.762Z,16.20
2018-06-23T16:55:15.751Z,16.10
2018-06-23T16:57:43.821Z,16.10
2018-06-23T17:00:11.806Z,16.10
2018-06-23T17:05:07.617Z,16.00
2018-06-23T17:07:35.707Z,16.00
2018-06-23T17:10:03.743Z,16.00
2018-06-23T17:12:31.769Z,16.00
2018-06-23T17:14:59.750Z,16.00
2018-06-23T17:17:27.774Z,16.20
2018-06-23T17:19:55.836Z,16.20
2018-06-23T17:22:23.854Z,16.20
2018-06-23T17:24:51.869Z,16.10
2018-06-23T17:27:19.875Z,16.00
2018-06-23T17:29:47.892Z,15.80
2018-06-23T17:32:15.882Z,15.70
2018-06-23T17:34:43.878Z,15.60
2018-06-23T17:37:11.872Z,15.40
2018-06-23T17:39:39.856Z,15.40
2018-06-23T17:42:07.946Z,15.30
2018-06-23T17:44:35.980Z,15.20
2018-06-23T17:47:04.015Z,15.20
2018-06-23T17:49:32.018Z,15.20
2018-06-23T17:52:00.419Z,15.20
2018-06-23T17:54:28.460Z,15.10
2018-06-23T17:56:56.533Z,15.10
2018-06-23T17:59:24.570Z,15.00
2018-06-23T18:01:52.569Z,15.00
2018-06-23T18:04:20.570Z,15.00
2018-06-23T18:06:48.604Z,15.00
2018-06-23T18:09:16.607Z,14.90
2018-06-23T18:11:44.618Z,14.90
2018-06-23T18:14:13.157Z,14.80
2018-06-23T18:16:41.187Z,14.80
2018-06-23T18:19:09.246Z,14.90
2018-06-23T18:21:37.281Z,14.90
2018-06-23T18:24:05.382Z,14.90
2018-06-23T18:26:33.649Z,14.80
2018-06-23T18:29:01.665Z,14.80
2018-06-23T18:31:29.695Z,14.80
2018-06-23T18:33:57.809Z,14.80
2018-06-23T18:36:25.858Z,14.80
2018-06-23T18:38:54.226Z,14.80
2018-06-23T18:41:22.643Z,14.80
2018-06-23T18:43:51.050Z,14.80
2018-06-23T18:46:19.520Z,14.70
2018-06-23T18:48:48.031Z,14.50
2018-06-23T18:51:16.460Z,14.50
2018-06-23T18:53:44.841Z,14.50
2018-06-23T18:56:13.371Z,14.60
2018-06-23T18:58:41.419Z,14.40
2018-06-23T19:01:09.417Z,14.50
2018-06-23T19:03:37.505Z,14.40
2018-06-23T19:06:05.794Z,14.40
2018-06-23T19:08:33.947Z,14.30
2018-06-23T19:11:02.120Z,14.30
2018-06-23T19:13:30.111Z,14.40
2018-06-23T19:15:58.254Z,14.40
2018-06-23T19:18:26.254Z,14.30
2018-06-23T19:20:54.289Z,14.20
2018-06-23T19:23:22.338Z,14.20
2018-06-23T19:25:50.342Z,14.10
2018-06-23T19:28:18.335Z,14.10
2018-06-23T19:30:46.353Z,14.10
2018-06-23T19:33:14.375Z,14.10
2018-06-23T19:35:42.487Z,14.00
2018-06-23T19:38:10.503Z,14.00
2018-06-23T19:40:38.535Z,14.00
2018-06-23T19:43:06.578Z,13.90
2018-06-23T19:45:34.629Z,13.80
2018-06-23T19:48:02.744Z,13.80
2018-06-23T19:50:30.778Z,13.80
2018-06-23T19:52:58.836Z,13.90
2018-06-23T19:55:26.866Z,13.90
2018-06-23T19:57:54.858Z,13.80
2018-06-23T20:00:22.891Z,13.90
2018-06-23T20:02:50.908Z,13.90
2018-06-23T20:05:18.947Z,13.90
2018-06-23T20:07:46.951Z,13.90
2018-06-23T20:10:14.970Z,13.80
2018-06-23T20:12:42.968Z,13.80
2018-06-23T20:15:10.976Z,13.80
2018-06-23T20:17:38.963Z,13.70
2018-06-23T20:20:07.166Z,13.80
2018-06-23T20:22:35.187Z,13.80
2018-06-23T20:25:03.208Z,13.80
2018-06-23T20:27:31.226Z,13.80
2018-06-23T20:29:59.393Z,13.80
2018-06-23T20:32:27.464Z,13.90
2018-06-23T20:34:55.857Z,13.90
2018-06-23T20:37:24.213Z,13.90
2018-06-23T20:39:52.688Z,13.80
2018-06-23T20:42:21.144Z,13.80
2018-06-23T20:44:49.464Z,13.80
2018-06-23T20:47:17.765Z,13.90
2018-06-23T20:49:45.750Z,13.90
2018-06-23T20:52:13.778Z,13.90
2018-06-23T20:54:41.842Z,13.90
2018-06-23T20:57:09.833Z,13.80
2018-06-23T20:59:38.812Z,13.80
2018-06-23T21:02:06.880Z,13.70
2018-06-23T21:04:36.354Z,13.70
2018-06-23T21:07:04.431Z,13.70
2018-06-23T21:09:32.410Z,13.70
2018-06-23T21:12:00.451Z,13.60
2018-06-23T21:14:28.511Z,13.60
2018-06-23T21:16:56.670Z,13.70
2018-06-23T21:19:24.680Z,13.60
2018-06-23T21:21:52.683Z,13.60
2018-06-23T21:24:20.725Z,13.60
2018-06-23T21:26:48.715Z,13.60
2018-06-23T21:29:16.707Z,13.50
2018-06-23T21:31:44.751Z,13.50
2018-06-23T21:34:12.748Z,13.60
2018-06-23T21:36:40.814Z,13.50
2018-06-23T21:39:09.732Z,13.50
2018-06-23T21:41:37.719Z,13.50
2018-06-23T21:44:05.995Z,13.50
2018-06-23T21:46:34.007Z,13.50
2018-06-23T21:49:02.427Z,13.50
2018-06-23T21:51:30.455Z,13.60
2018-06-23T21:53:58.442Z,13.50
2018-06-23T21:56:26.443Z,13.50
2018-06-23T22:01:22.294Z,13.60
2018-06-23T22:03:50.326Z,13.60
2018-06-23T22:06:18.320Z,13.60
2018-06-23T22:11:14.147Z,13.70
2018-06-23T22:16:10.679Z,13.50
2018-06-23T22:18:38.688Z,13.50
2018-06-23T22:21:06.819Z,13.50
2018-06-23T22:23:34.826Z,13.40
2018-06-23T22:26:02.815Z,13.40
2018-06-23T22:28:30.878Z,13.50
2018-06-23T22:30:58.882Z,13.50
2018-06-23T22:33:26.875Z,13.50
2018-06-23T22:35:54.860Z,13.50
2018-06-23T22:38:22.851Z,13.50
2018-06-23T22:40:50.838Z,13.50
2018-06-23T22:43:18.831Z,13.40
2018-06-23T22:45:46.838Z,13.40
2018-06-23T22:48:14.872Z,13.40
2018-06-23T22:50:42.862Z,13.40
2018-06-23T22:53:10.850Z,13.40
2018-06-23T22:55:38.838Z,13.40
2018-06-23T22:58:06.818Z,13.40
2018-06-23T23:00:34.835Z,13.40
2018-06-23T23:03:02.838Z,13.40
2018-06-23T23:05:30.819Z,13.50
2018-06-23T23:07:58.814Z,13.40
2018-06-23T23:10:26.849Z,13.40
2018-06-23T23:12:54.971Z,13.50
2018-06-23T23:15:22.964Z,13.40
2018-06-23T23:17:50.969Z,13.50
2018-06-23T23:20:18.986Z,13.40
2018-06-23T23:22:46.998Z,13.50
2018-06-23T23:25:15.023Z,13.50
2018-06-23T23:27:43.014Z,13.50
2018-06-23T23:30:11.058Z,13.50
2018-06-23T23:32:39.037Z,13.50
2018-06-23T23:35:07.212Z,13.50
2018-06-23T23:37:35.288Z,13.60
2018-06-23T23:40:03.304Z,13.50
2018-06-23T23:42:31.380Z,13.50
2018-06-23T23:44:59.451Z,13.50
2018-06-23T23:47:27.490Z,13.50
2018-06-23T23:49:55.474Z,13.50
2018-06-23T23:52:23.468Z,13.50
2018-06-23T23:54:51.529Z,13.40
2018-06-23T23:57:19.511Z,13.50
2018-06-23T23:59:47.510Z,13.40
